Cape Carteret, North Carolina
Current Conditions -  °F | °C
As of 4:27 AM on Saturday 25 Oct 2014 (Local Time) from KNCA Reporting Station
Haze Haze  
Wind Chill: 45°   Ceiling: Unl
Heat Index: 47°   Visibility: 6mi
Dew Point: 45°   Wind: 5mph
Humidity: 93%   Direction: 280°W
Pressure: 29.96"   Gusts: NA
Location:  34.7017°N, 77.1399°W
Report Text: KNCA 250827Z AUTO 28004KT 6SM BR CLR 08/07 A2996 RMK AO2 T00830072
Loading
Personal Weather Stations






























Interactive Weather Map
Tropical Storm Tracking
New forecast layout! Learn more

10-Day Weather Forecast

Advertisements
Track Severe Weather on mobile